»·PEaware :: N728CS KPHX-KEGE

N728CS :: KPHX-KEGE

FLIGHT INFORMATION

Flight Status: Arrived
Operator: Privately registered:
United States
More flights under this callsign
Pilot: Chandler S. (807)
Aircraft: BEECH AIRCRAFT PREMIER
(PRM1)
More flights by this aircraft type
Origin: KPHX Phoenix Sky Harbor Intl
United States
Destination: KEGE Eagle Co Regl
United States
More flights between these airports :: More routes between these airports
Route: MRBIL1 JARPA RSK V421 HBU
File this flight plan on PilotEdge
Remarks:
Altitude:
(Current/Filed)
41,000ft
Speed:
(Current/Filed)
400kts
Departed: 13-Nov-21 02:21 PM
Arrived: 13-Nov-21 03:43 PM
Distance/Time
Traveled:
446nm/1:22
Distance/Time
To Go:
Arrived

Flight Plot

Page will automatically refresh every two minutes.

Flight plan parsing failed; only flown route is shown


Map Options




Map Legend


Flown Route
Filed Route
Departure Airport
Arrival Airport
Navaid (VOR, NDB)
Fix

Horizontal Profiles

Position Reports

Time Latitude Longitude Heading Altitude Ground
Speed
13-Nov-21 14:05 33.425713 -112.019561 269 1138ft 0kts
13-Nov-21 14:06 33.425713 -112.019561 269 1138ft 0kts
13-Nov-21 14:07 33.425713 -112.019561 269 1138ft 0kts
13-Nov-21 14:08 33.425713 -112.019561 269 1138ft 0kts
13-Nov-21 14:09 33.425713 -112.019561 269 1138ft 0kts
13-Nov-21 14:10 33.425713 -112.019561 269 1138ft 0kts
13-Nov-21 14:11 33.425713 -112.019561 269 1138ft 0kts
13-Nov-21 14:12 33.425713 -112.019561 269 1138ft 0kts
13-Nov-21 14:13 33.425713 -112.019562 269 1138ft 0kts
13-Nov-21 14:14 33.425713 -112.019562 269 1138ft 0kts
13-Nov-21 14:15 33.425713 -112.019562 269 1138ft 0kts
13-Nov-21 14:16 33.425713 -112.019562 269 1138ft 0kts
13-Nov-21 14:17 33.427646 -112.021303 313 1138ft 11kts
13-Nov-21 14:18 33.427738 -112.025725 274 1138ft 13kts
13-Nov-21 14:19 33.427969 -112.026907 329 1138ft 0kts
13-Nov-21 14:20 33.428856 -112.023449 89 1138ft 82kts
13-Nov-21 14:21 33.432571 -111.967159 82 3300ft 215kts
13-Nov-21 14:22 33.450218 -111.896113 41 6339ft 243kts
13-Nov-21 14:23 33.515978 -111.870586 11 8052ft 282kts
13-Nov-21 14:24 33.593640 -111.851162 11 10453ft 281kts
13-Nov-21 14:25 33.670393 -111.831207 13 12762ft 289kts
13-Nov-21 14:26 33.748591 -111.805182 13 14817ft 296kts
13-Nov-21 14:27 33.824087 -111.764421 34 16657ft 307kts
13-Nov-21 14:28 33.891719 -111.702068 35 18521ft 309kts
13-Nov-21 14:29 33.960796 -111.638290 34 20083ft 316kts
13-Nov-21 14:30 34.033193 -111.576650 29 21497ft 322kts
13-Nov-21 14:31 34.107906 -111.519063 29 22999ft 323kts
13-Nov-21 14:32 34.183315 -111.461055 29 24274ft 327kts
13-Nov-21 14:33 34.259799 -111.402106 29 25583ft 330kts
13-Nov-21 14:34 34.337465 -111.342109 29 26868ft 329kts
13-Nov-21 14:35 34.415565 -111.281664 29 27880ft 335kts
13-Nov-21 14:36 34.493359 -111.221257 28 29295ft 326kts
13-Nov-21 14:37 34.570523 -111.161310 28 30231ft 334kts
13-Nov-21 14:38 34.645122 -111.094465 39 31386ft 336kts
13-Nov-21 14:39 34.712409 -111.013500 41 32176ft 345kts
13-Nov-21 14:40 34.780739 -110.930412 42 33054ft 348kts
13-Nov-21 14:41 34.849045 -110.847421 42 33929ft 351kts
13-Nov-21 14:42 34.918570 -110.762793 41 34810ft 356kts
13-Nov-21 14:43 34.988461 -110.677489 41 35639ft 362kts
13-Nov-21 14:44 35.060557 -110.589269 40 36466ft 366kts
13-Nov-21 14:45 35.131875 -110.501769 40 37351ft 366kts
13-Nov-21 14:46 35.203134 -110.414094 40 38332ft 364kts
13-Nov-21 14:47 35.274367 -110.326241 41 39229ft 362kts
13-Nov-21 14:48 35.345422 -110.238377 41 40015ft 361kts
13-Nov-21 14:49 35.416030 -110.150845 41 40547ft 365kts
13-Nov-21 14:50 35.486264 -110.063511 41 41282ft 362kts
13-Nov-21 14:51 35.558141 -109.973989 41 41368ft 377kts
13-Nov-21 14:52 35.633228 -109.880123 41 41369ft 393kts
13-Nov-21 14:53 35.709748 -109.781219 46 41370ft 409kts
13-Nov-21 14:54 35.781259 -109.669389 48 41366ft 421kts
13-Nov-21 14:55 35.853701 -109.554362 49 41369ft 431kts
13-Nov-21 14:56 35.927241 -109.436988 49 41371ft 437kts
13-Nov-21 14:57 36.001958 -109.317333 49 41363ft 442kts
13-Nov-21 14:58 36.077105 -109.196525 49 41362ft 446kts
13-Nov-21 14:59 36.152944 -109.074254 49 41366ft 448kts
13-Nov-21 15:00 36.228989 -108.951189 49 41366ft 451kts
13-Nov-21 15:01 36.305250 -108.827325 49 41336ft 454kts
13-Nov-21 15:02 36.381799 -108.702566 49 41304ft 456kts
13-Nov-21 15:03 36.458547 -108.576958 49 41307ft 457kts
13-Nov-21 15:04 36.535142 -108.451161 49 41304ft 458kts
13-Nov-21 15:05 36.611799 -108.324789 50 41299ft 459kts
13-Nov-21 15:06 36.687619 -108.199329 50 41301ft 458kts
13-Nov-21 15:07 36.770804 -108.081149 35 41302ft 452kts
13-Nov-21 15:08 36.872795 -107.991507 30 41311ft 449kts
13-Nov-21 15:09 36.975474 -107.903182 30 41320ft 449kts
13-Nov-21 15:10 37.078280 -107.814330 28 41320ft 450kts
13-Nov-21 15:11 37.184159 -107.733776 17 41325ft 442kts
13-Nov-21 15:12 37.297235 -107.672876 15 41324ft 442kts
13-Nov-21 15:13 37.410172 -107.612577 16 41325ft 443kts
13-Nov-21 15:14 37.523067 -107.551163 16 41333ft 444kts
13-Nov-21 15:15 37.635834 -107.489666 16 41343ft 444kts
13-Nov-21 15:16 37.748965 -107.427803 16 41407ft 443kts
13-Nov-21 15:17 37.861627 -107.366016 16 41428ft 443kts
13-Nov-21 15:18 37.974275 -107.304019 16 41420ft 444kts
13-Nov-21 15:19 38.087957 -107.241262 16 41339ft 445kts
13-Nov-21 15:20 38.202569 -107.178143 16 40298ft 456kts
13-Nov-21 15:21 38.319035 -107.113581 17 38692ft 455kts
13-Nov-21 15:22 38.435200 -107.051177 10 36895ft 441kts
13-Nov-21 15:23 38.551533 -107.029102 357 34989ft 415kts
13-Nov-21 15:24 38.664575 -107.017645 357 33075ft 402kts
13-Nov-21 15:25 38.774413 -107.006433 357 31157ft 389kts
13-Nov-21 15:26 38.881218 -106.995422 358 29232ft 379kts
13-Nov-21 15:27 38.985337 -106.984646 357 27306ft 370kts
13-Nov-21 15:28 39.087011 -106.972285 6 25829ft 379kts
13-Nov-21 15:29 39.188911 -106.933430 8 24548ft 384kts
13-Nov-21 15:30 39.290307 -106.894448 8 23497ft 379kts
13-Nov-21 15:31 39.386755 -106.841836 45 22346ft 405kts
13-Nov-21 15:32 39.425045 -106.702804 68 20795ft 402kts
13-Nov-21 15:33 39.455174 -106.572064 68 18844ft 357kts
13-Nov-21 15:35 39.507877 -106.487790 359 16902ft 291kts
13-Nov-21 15:36 39.579694 -106.511971 333 16337ft 244kts
13-Nov-21 15:37 39.635658 -106.557264 309 15481ft 241kts
13-Nov-21 15:38 39.680989 -106.622858 305 13412ft 245kts
13-Nov-21 15:39 39.677512 -106.705848 252 11476ft 223kts
13-Nov-21 15:40 39.661824 -106.777145 260 10260ft 204kts
13-Nov-21 15:41 39.650717 -106.846247 258 8010ft 177kts
13-Nov-21 15:42 39.643996 -106.904842 257 6562ft 146kts
13-Nov-21 15:43 39.641021 -106.922406 111 6549ft 3kts
13-Nov-21 15:44 39.641887 -106.913679 80 6549ft 34kts
13-Nov-21 15:45 39.641578 -106.908090 218 6549ft 1kts
13-Nov-21 15:46 39.641525 -106.908341 261 6549ft 0kts

Navigation Log

Ident Type
Flight plan parsing failed, navigation log unavailable